Weather observations for the past three days for
Hammond, Hammond Municipal Airport
Metric (Imperial)
Date Time (cdt) Wind (kph) Vis. (km) Weather Sky Cond. Temperature (ºC) Relative Humidity Wind Chill (°C) Heat Index (°C) Pressure Precipitation (cm)
Air Dwpt 6 hour altimeter (cm) sea level (mb) 1 hr 3 hr 6 hr
Max. Min.
08 16:55 Calm 8.05 Rain SCT060 BKN075 OVC095 19.1 19.1 100% 75.95 0.0
08 16:35 Calm 8.05 Light Rain SCT065 BKN100 OVC120 19.1 19.1 100% 75.95 0.0
08 16:15 SE 13 16.09 Thunderstorm Light Rain in Vicinity OVC110 19 19 100% 75.92 0.0
08 15:55 SE 19 16.09 Thunderstorm Light Rain OVC110 18.8 18.8 100% 75.95 0.0
08 15:35 SE 13 16.09 Light Rain SCT010 SCT075 OVC100 18.8 18.8 100% 76 0.0
08 15:15 Calm 11.27 Thunderstorm Light Rain in Vicinity SCT005 BKN055 OVC100 18.5 18.5 100% 76.05 0.0
08 14:55 SE 15 8.05 Thunderstorm Rain SCT005 BKN026 OVC035 18.3 18.3 100% 76.07 0.0
08 14:35 SE 13 3.22 Thunderstorm Heavy Rain BKN003 BKN019 OVC027 18.2 18.2 100% 76.17 0.0
08 14:15 E 9 4.02 Thunderstorm Rain SCT005 BKN027 OVC055 18.1 18.1 100% 76.17 0.0
08 13:55 NE 11 2.82 Thunderstorm Heavy Rain BKN005 OVC018 18 18 100% 76.12 0.0 0.03
08 13:35 Calm 4.02 Thunderstorm Rain BKN005 BKN009 OVC021 18 18 100% 76.17 0.0 0.03
08 13:15 NE 7 6.44 Thunderstorm Rain BKN007 OVC014 18.1 18.1 100% 76.1 0.0 0.03
08 12:55 N 6 11.27 Thunderstorm Rain BKN007 OVC015 18.3 18.2 19.2 17.7 99% 76.1 0.0
08 12:35 E 7 6.44 Thunderstorm Light Rain in Vicinity BKN009 OVC014 18.5 18.1 98% 76.05 0.0
08 12:15 NE 11 16.09 Thunderstorm in Vicinity OVC009 19 18.1 95% 76.07 0.0
08 11:55 E 6 16.09 Overcast OVC009 19.1 18.1 94% 76.12 0.0
08 11:35 Calm 16.09 Overcast OVC009 19.1 18.3 95% 76.1 0.0
08 11:15 NE 6 16.09 Overcast OVC009 19 18.5 97% 76.12 0.0
08 10:55 NE 7 16.09 Overcast OVC007 18.7 18.2 97% 76.17 0.0
08 10:35 E 6 16.09 Overcast OVC007 18.9 18.4 97% 76.17 0.0
08 10:15 NE 7 16.09 Overcast OVC007 18.6 18.4 99% 76.15 0.0
08 09:55 E 7 16.09 Overcast OVC005 18.3 18.3 100% 76.12 0.0
08 09:35 E 11 16.09 Overcast OVC005 18.3 18.3 100% 76.1 0.0
08 09:15 Calm 6.44 Thunderstorm Fog/Mist OVC005 18.5 18.5 100% 76.12 0.0
08 08:55 E 7 11.27 Thunderstorm Light Rain in Vicinity OVC005 18.3 18.3 100% 76.1 0.0
08 08:35 E 9 16.09 Light Rain SCT005 OVC014 18.3 18.1 99% 76.12 0.0
08 08:15 E 9 16.09 Overcast SCT005 OVC014 18 18 100% 76.12 0.0
08 07:55 E 7 16.09 Overcast BKN005 BKN009 OVC014 18 18 100% 76.15 0.0
08 07:35 E 7 11.27 Overcast OVC005 17.9 17.9 100% 76.12 0.0
08 07:15 Calm 16.09 Overcast BKN005 BKN011 OVC018 17.7 17.7 100% 76.15 0.0
08 06:55 E 7 16.09 Overcast BKN007 BKN011 OVC018 17.8 17.8 18.7 17.6 100% 76.12 0.0
08 06:35 Calm 16.09 Overcast SCT005 OVC013 17.6 17.6 100% 76.15 0.0
08 06:15 E 7 16.09 Overcast SCT007 OVC013 17.7 17.6 99% 76.12 0.0
08 05:55 Calm 8.05 Fog/Mist BKN007 OVC011 17.8 17.5 98% 76.12 0.0
08 05:35 NE 6 11.27 Overcast BKN009 OVC013 18 17.4 96% 76.12 0.0
08 05:15 N 9 16.09 Overcast OVC013 18.5 17.2 92% 76.12 0.0
08 04:55 N 11 16.09 Overcast OVC013 18.6 17.1 91% 76.12 0.0
08 04:35 N 6 16.09 Overcast OVC015 18.6 17 90% 76.05 0.0
08 04:15 E 7 16.09 Overcast OVC017 18.6 17 90% 76.02 0.0
08 03:55 Calm 16.09 Overcast OVC017 18.5 17 91% 76.05 0.0
08 03:35 E 6 16.09 Overcast OVC017 18.5 17 91% 76.05 0.0
08 03:15 NE 6 16.09 Overcast OVC019 18.5 17 91% 76.07 0.0
08 02:55 Calm 16.09 Overcast OVC019 18.5 17.1 92% 76.1 0.0
08 02:35 Calm 16.09 Overcast OVC017 18.3 17.1 93% 76.07 0.0
08 02:15 N 7 16.09 Overcast OVC017 18.3 17.1 93% 76.07 0.0
08 01:55 NE 7 16.09 Overcast OVC017 18.3 17 92% 76.1 0.0
08 01:35 NE 7 16.09 Overcast OVC019 18.2 17.1 93% 76.12 0.0
08 01:15 N 9 16.09 Overcast OVC019 18.3 17.2 93% 76.12 0.0
08 00:55 N 6 16.09 Overcast OVC019 18.3 17 22.2 18 92% 76.12 0.0
08 00:35 Calm 16.09 Overcast OVC019 18.4 17.2 93% 76.12 0.0
08 00:15 Calm 16.09 Overcast OVC019 18.5 17 91% 76.12 0.0
07 23:55 E 6 16.09 Overcast OVC019 18.3 17 92% 76.12 0.0
07 23:35 Calm 16.09 Mostly Cloudy BKN021 18.1 17 93% 76.15 0.0
07 23:15 Calm 16.09 Partly Cloudy SCT023 18.1 16.7 92% 76.17 0.0
07 22:55 Calm 16.09 Fair CLR 18.2 16.8 92% 76.2 0.0
07 22:35 Calm 16.09 Fair CLR 18.5 16.7 89% 76.2 0.0
07 22:15 N 6 16.09 Fair CLR 18.5 17 91% 76.2 0.0
07 21:55 NE 6 16.09 Partly Cloudy SCT021 18.8 16.9 89% 76.2 0.0
07 21:35 NE 13 16.09 Partly Cloudy SCT021 19.1 17.3 89% 76.17 0.0
07 21:15 Calm 16.09 Partly Cloudy SCT021 19.5 17.2 87% 76.15 0.0
07 20:55 NE 11 16.09 Overcast OVC023 19.8 17.3 86% 76.12 0.0
07 20:35 NE 9 16.09 Overcast OVC023 20.2 17.6 85% 76.12 0.0
07 20:15 NE 11 16.09 Overcast OVC023 20.5 17.7 84% 76.12 0.0
07 19:55 NE 11 16.09 Overcast OVC023 20.8 18 84% 76.1 0.0
07 19:35 N 7 16.09 Overcast OVC025 21.1 18.5 85% 76.1 0.0
07 19:15 N 13 16.09 Overcast OVC025 21.8 18.6 82% 76.07 0.0
07 18:55 N 13 16.09 Overcast OVC025 22.5 18.8 25.8 22.5 80% 76.07 0.0
07 18:35 N 13 16.09 Overcast OVC025 23.2 19 77% 76.07 0.0
07 18:15 N 13 16.09 Overcast OVC025 23.5 19.3 77% 76.07 0.0
07 17:55 N 17 16.09 Overcast OVC025 24 19.6 77% 25 76.05 0.0 0.03
07 17:35 N 13 16.09 Overcast OVC025 24.4 19.5 74% 25 76.07 0.0
07 17:15 NE 9 16.09 Overcast OVC023 24.5 19.8 75% 25 76.07 0.0
07 16:55 NE 11 16.09 Overcast OVC023 24.5 19.7 75% 25 76.05 0.0
07 16:35 NE 9 G 15 16.09 Overcast OVC023 24.6 19.7 74% 25 76.05 0.0
07 16:15 N 11 16.09 Overcast OVC021 25.2 20.5 75% 26 76.02 0.0
07 15:55 NE 11 16.09 Overcast OVC021 24.7 20 75% 26 76.05 0.0
07 15:35 N 7 16.09 Overcast OVC021 24.5 20.1 77% 25 76.05 0.0
07 15:15 N 17 16.09 Overcast OVC021 24.9 20.1 75% 26 76.05 0.0
07 14:55 N 9 16.09 Overcast OVC021 25.4 20.2 73% 27 76.05 0.0
07 14:35 N 9 16.09 Overcast OVC023 25.1 20.4 75% 26 76.07 0.0
07 14:15 NW 13 16.09 Overcast OVC023 24.9 20.2 75% 26 76.07 0.0
07 13:55 N 13 16.09 Overcast OVC021 25 20.2 75% 26 76.07 0.0
07 13:35 N 11 16.09 Overcast OVC019 25 20.3 75% 26 76.07 0.0
07 13:15 N 9 16.09 Overcast OVC017 24.5 20 76% 25 76.1 0.0
07 12:55 N 11 16.09 Mostly Cloudy BKN017 23.7 19.6 23.9 17.9 78% 76.1 0.0
07 12:35 Calm 16.09 Partly Cloudy SCT013 22.9 19.3 80% 76.12 0.0
07 12:15 Calm 16.09 Mostly Cloudy BKN013 22.4 18.9 81% 76.12 0.0
07 11:55 NE 6 16.09 Mostly Cloudy BKN011 BKN017 21 18.3 85% 76.12 0.0
07 11:35 N 13 16.09 Overcast OVC009 20.6 18.3 87% 76.15 0.0
07 11:15 N 19 16.09 Overcast OVC009 20 18 88% 76.17 0.0
07 10:55 N 13 16.09 Overcast OVC007 19.5 17.9 91% 76.2 0.0
07 10:35 N 15 16.09 Overcast OVC007 19.4 18 92% 76.17 0.0
07 10:15 N 11 16.09 Overcast OVC007 18.9 17.9 94% 76.15 0.0
07 09:55 N 9 16.09 Overcast OVC005 18.2 18 99% 76.15 0.0
07 09:35 N 11 16.09 Overcast OVC005 18 18 100% 76.15 0.0
07 09:15 N 13 16.09 Overcast OVC005 18.2 18 99% 76.15 0.0
07 08:55 N 11 16.09 Overcast OVC005 18.5 18.4 99% 76.15 0.0
07 08:35 N 9 16.09 Overcast OVC005 18.7 18.6 99% 76.12 0.0
07 08:15 N 17 16.09 Overcast BKN007 OVC012 18.8 18.8 100% 76.1 0.0
07 07:55 N 13 16.09 Overcast BKN007 OVC012 19 19 100% 76.1 0.0
07 07:35 N 9 16.09 Overcast OVC005 19.5 19.5 100% 76.07 0.0
07 07:15 NW 11 16.09 Overcast OVC005 19.9 19.9 100% 76.07 0.0
07 06:55 NW 7 11.27 Overcast OVC005 20.1 20.1 25.5 20.1 100% 76.02 0.0
07 06:35 N 13 6.44 Thunderstorm in Vicinity Fog/Mist OVC005 20.3 20.3 100% 76 0.0
07 06:15 N 7 6.44 Thunderstorm Light Rain in Vicinity OVC007 20.7 20.7 100% 75.95 0.0
07 05:55 N 15 G 31 16.09 Overcast OVC005 21.4 21.4 100% 75.95 0.0
07 05:35 Calm 16.09 Overcast BKN005 OVC014 21.6 21.6 100% 75.9 0.0
07 05:15 N 7 11.27 Overcast SCT005 OVC014 21.9 21.9 100% 75.9 0.0
07 04:55 N 13 11.27 Light Drizzle BKN005 OVC012 22 22 100% 75.9 0.0 0.03
07 04:35 NW 20 G 26 11.27 Overcast OVC005 24.5 24.5 100% 24 75.87 0.0 0.03
07 04:20 SW 6 6.44 Fog/Mist OVC005 24.5 24.5 100% 24 75.84 0.0 0.03
07 03:55 SW 7 8.05 Fog/Mist OVC005 24.5 24.5 100% 24 75.84 0.0
07 03:35 SW 7 11.27 Overcast OVC005 24.5 24.5 100% 24 75.84 0.0
07 03:15 SW 6 11.27 Overcast OVC005 24.5 24.5 100% 24 75.84 0.0
07 02:55 Calm 11.27 Overcast OVC007 24.5 24.5 100% 24 75.84 0.0
07 02:35 SW 7 6.44 Fog/Mist OVC009 24.6 24.5 99% 24 75.87 0.0
07 02:15 SW 7 11.27 Overcast OVC009 25 24.3 96% 25 75.87 0.0
07 01:55 SW 6 16.09 Overcast OVC011 25.1 24.3 95% 26 75.87 0.0
07 01:35 SW 7 16.09 Overcast OVC013 25.1 24.4 96% 26 75.9 0.0
07 01:15 SW 11 16.09 Overcast OVC013 25.4 24.1 93% 27 75.9 0.0
07 00:35 SW 7 16.09 Overcast OVC013 25.5 24.1 92% 27 75.9 0.0
07 00:15 SW 9 16.09 Overcast OVC013 25.5 24.1 92% 27 75.87 0.0
06 23:55 SW 11 16.09 Overcast OVC013 25.5 24.1 92% 27 75.9 0.0
06 23:35 SW 15 G 26 16.09 Overcast BKN017 OVC021 25.5 24.1 92% 27 75.87 0.0
06 23:15 SW 13 16.09 Overcast BKN011 OVC017 25.5 24.1 92% 27 75.87 0.0
06 22:55 SW 11 16.09 Overcast OVC013 25.5 24.1 92% 27 75.87 0.0
06 22:15 S 19 16.09 Overcast OVC015 25.5 24 91% 27 75.84 0.0
06 21:55 S 15 16.09 Overcast BKN017 BKN026 OVC100 25.5 24 91% 27 75.84 0.0
06 21:35 S 11 16.09 Overcast SCT024 BKN080 OVC100 25.7 24 90% 27 75.87 0.0
06 21:15 S 15 16.09 Overcast BKN021 BKN028 OVC055 25.8 24 90% 28 75.87 0.0
06 20:55 S 17 16.09 Overcast BKN023 BKN060 OVC070 26 24 89% 28 75.84 0.0
06 20:35 S 15 16.09 Overcast SCT034 BKN060 OVC090 26 23.8 88% 28 75.82 0.0
06 20:15 S 17 16.09 Overcast BKN055 OVC075 26.3 23.8 86% 29 75.79 0.0
06 19:55 S 19 16.09 Overcast SCT031 BKN055 OVC075 26.5 23.7 85% 29 75.82 0.0
06 19:35 S 17 16.09 Overcast BKN033 BKN065 OVC100 26.8 23.7 83% 30 75.82 0.0
06 19:15 S 13 G 26 16.09 Mostly Cloudy SCT033 BKN055 BKN065 27 23.7 82% 30 75.79 0.0
06 18:55 S 17 16.09 Mostly Cloudy BKN055 BKN065 BKN100 27.5 23.7 29.2 27 80% 31 75.77 0.0
06 18:35 S 17 G 26 16.09 Mostly Cloudy BKN049 BKN065 BKN100 28 23.9 78% 32 75.79 0.0
06 17:55 S 20 16.09 Overcast BKN049 OVC080 27.8 24.3 81% 32 75.74 0.0
06 17:35 S 17 16.09 Overcast SCT034 SCT040 OVC049 27.4 24.5 84% 31 75.74 0.0
06 17:15 S 19 16.09 Overcast BKN034 OVC039 27.1 24.3 85% 30 75.77 0.0
06 16:35 SE 19 16.09 Overcast BKN030 OVC038 28.3 24.2 78% 33 75.82 0.0
06 16:15 S 11 16.09 Overcast BKN028 OVC036 28.5 24.2 78% 33 75.84 0.0
06 15:55 S 13 16.09 Mostly Cloudy SCT026 BKN032 BKN040 29 24.5 77% 34 75.84 0.0
06 15:35 S 11 16.09 Mostly Cloudy SCT021 SCT028 BKN033 28.7 25.2 81% 34 75.84 0.0
06 15:15 S 13 16.09 Rain BKN023 BKN029 OVC035 27.3 25.1 88% 31 75.87 0.0
06 14:55 S 15 16.09 Overcast BKN024 BKN029 OVC038 28.7 24.4 78% 33 75.9 0.0
06 14:35 S 13 16.09 Overcast BKN024 BKN039 OVC048 28.7 24.5 78% 34 75.95 0.0
06 14:15 S 15 16.09 Overcast SCT022 BKN039 OVC050 28.6 24.3 78% 33 75.97 0.0
06 13:55 S 17 16.09 Mostly Cloudy SCT020 BKN048 BKN055 28.7 24.5 78% 34 76 0.0
06 13:35 S 17 16.09 Overcast BKN018 BKN048 OVC055 28.5 24.5 79% 33 76 0.0
06 13:15 S 17 16.09 Overcast SCT018 SCT039 OVC050 28.4 24.5 79% 33 76.02 0.0
06 12:55 S 15 16.09 Overcast SCT018 BKN039 OVC046 27.8 24.5 27.8 23 82% 32 76.05 0.0
06 12:35 S 17 16.09 Overcast SCT021 BKN030 OVC042 27.1 24.4 85% 31 76.05 0.0
06 12:15 S 11 16.09 Overcast SCT016 BKN022 OVC037 27 24.3 85% 30 76.07 0.0
06 11:55 S 13 16.09 Overcast SCT016 SCT022 OVC050 26.9 24.3 86% 30 76.07 0.0
06 11:35 S 13 16.09 Overcast SCT016 BKN022 OVC048 26.7 24.3 87% 30 76.07 0.0
06 11:15 S 9 16.09 Overcast BKN014 OVC022 26.3 24.1 88% 29 76.07 0.0
06 10:55 SW 9 16.09 Overcast OVC014 25.8 24.1 90% 28 76.05 0.0
06 10:35 S 7 16.09 Overcast OVC012 25.6 24.1 91% 27 76.02 0.0
06 10:15 S 7 16.09 Overcast OVC012 25.2 24 93% 26 76.02 0.0
06 09:55 S 9 16.09 Overcast OVC010 25 23.9 94% 26 76.02 0.0
06 09:35 S 9 16.09 Overcast OVC010 25.1 23.9 93% 26 76.02 0.0
06 09:15 S 9 16.09 Overcast OVC008 24.7 23.8 95% 25 76.02 0.0
06 08:55 S 9 16.09 Overcast OVC008 24.4 23.6 95% 24 76 0.0
06 08:35 S 7 16.09 Overcast OVC008 24 23.5 97% 23 76 0.0
06 08:15 S 9 16.09 Overcast OVC008 23.7 23.2 97% 76 0.0
06 07:55 S 6 16.09 Overcast OVC008 23.5 23.1 98% 75.97 0.0
06 07:35 S 7 16.09 Overcast OVC008 23.2 22.8 98% 75.97 0.0
06 06:55 S 7 16.09 Overcast OVC010 23 22.5 23 22.3 97% 75.95 0.0
06 06:35 S 6 16.09 Overcast OVC010 22.8 22.3 97% 75.92 0.0
06 06:15 S 7 16.09 Overcast OVC010 22.7 22.2 97% 75.9 0.0
06 05:55 S 6 16.09 Overcast OVC012 22.6 22.1 97% 75.9 0.0 0.03
06 05:35 S 7 16.09 Overcast OVC012 22.5 22.1 98% 75.9 0.0
06 05:15 Calm 16.09 Overcast BKN014 OVC042 22.5 22 97% 75.9 0.0
06 04:55 S 6 16.09 Overcast SCT016 OVC042 22.3 22 98% 75.87 0.0
06 04:35 Calm 16.09 Overcast SCT018 OVC040 22.5 22 97% 75.87 0.0
06 04:15 S 9 16.09 Overcast OVC038 22.5 22 97% 75.87 0.0
06 03:55 S 7 16.09 Overcast SCT009 OVC036 22.5 22 97% 75.87 0.0
06 03:35 S 7 16.09 Overcast SCT009 OVC036 22.5 21.9 96% 75.87 0.0
06 03:15 S 11 16.09 Overcast SCT011 BKN022 OVC033 22.6 22 96% 75.9 0.0
06 02:55 S 7 16.09 Overcast SCT013 BKN018 OVC023 22.5 21.9 96% 75.9 0.0
06 02:35 S 7 16.09 Overcast BKN011 OVC020 22.5 21.8 96% 75.92 0.0
06 02:15 S 9 16.09 Overcast BKN013 OVC020 22.5 21.7 95% 75.92 0.0
06 01:55 S 9 16.09 Overcast OVC013 22.5 21.7 95% 75.92 0.0
06 01:35 S 9 16.09 Overcast OVC014 22.5 21.7 95% 75.92 0.0
06 01:15 S 11 16.09 Overcast BKN012 OVC018 22.5 21.7 95% 75.92 0.0
06 00:55 S 9 16.09 Overcast BKN014 OVC020 22.5 21.7 25.5 21.8 95% 75.95 0.0
06 00:35 S 7 16.09 Overcast OVC014 22.3 21.7 96% 75.95 0.0
06 00:15 S 11 16.09 Mostly Cloudy BKN014 22 21.5 97% 75.95 0.0
05 23:55 S 11 16.09 Mostly Cloudy BKN016 22.2 21.5 96% 75.95 0.0
05 23:35 S 13 16.09 Partly Cloudy SCT016 22 21.2 95% 75.92 0.0
05 23:15 S 9 16.09 Fair CLR 22 21 94% 75.95 0.0
05 22:55 S 9 16.09 Fair CLR 22.1 21.1 94% 75.95 0.0
05 22:35 S 11 16.09 Fair CLR 22.2 21.2 94% 75.95 0.0
05 22:15 S 11 16.09 Fair CLR 22.2 21.2 94% 75.95 0.0
05 21:55 S 11 16.09 Fair CLR 22.5 21.1 92% 75.92 0.0
05 21:35 S 11 16.09 Fair CLR 22.6 21 91% 75.9 0.0
05 21:15 S 11 16.09 Fair CLR 23 20.8 87% 75.92 0.0
05 20:55 S 9 16.09 Fair CLR 23 20.8 87% 75.9 0.0
05 20:35 S 7 16.09 Fair CLR 23.5 20.9 85% 75.87 0.0
05 20:15 S 13 16.09 Fair CLR 23.9 21.1 84% 24 75.87 0.0
05 19:55 S 13 16.09 Fair CLR 24.1 21.3 84% 24 75.84 0.0
05 19:35 S 13 16.09 Partly Cloudy SCT050 24.8 21 79% 26 75.84 0.0
05 19:15 S 24 16.09 Mostly Cloudy BKN050 25.2 21 78% 26 75.87 0.0
05 18:55 S 20 G 26 16.09 Mostly Cloudy SCT040 SCT047 BKN050 25.6 21.2 28.5 25.6 77% 27 75.84 0.0
05 18:35 S 26 G 33 16.09 Mostly Cloudy SCT042 BKN050 25.9 21.2 75% 27 75.84 0.0
05 18:15 S 22 16.09 Overcast OVC060 26.3 21.2 74% 28 75.84 0.0
05 17:55 S 22 16.09 Overcast SCT034 BKN049 OVC060 26.3 21.1 73% 28 75.84 0.0 0.03
05 17:35 S 19 G 30 16.09 Overcast SCT036 BKN043 OVC060 26.7 20.9 71% 28 75.84 0.0
05 17:15 S 20 16.09 Mostly Cloudy SCT037 BKN046 BKN055 27.6 20.8 67% 30 75.84 0.0
Date Time (cdt) Wind (kph) Vis. (km) Weather Sky Cond. Air Dwpt Max. Min. Relative Humidity Wind Chill (°C) Heat Index (°C) altimeter (cm) sea level (mb) 1 hr 3 hr 6 hr
6 hour
Temperature (ºC) Pressure Precipitation (cm)